Terminal Aerodrome Forecast
Issued by NWS

Home | Current Version | Previous Version | Text Only | Print | Product List | Glossary On
Versions: 1 2 3 4 5 6 7 8 9 10 11 12 13 14
040
FTUS43 KEAX 281202 AAA
TAFMKC
TAF AMD
KMKC 281202Z 2812/2912 18005KT P6SM BKN030
      TEMPO 2812/2814 BKN018
     FM281700 20008KT P6SM SCT035
     FM282100 23009KT P6SM BKN090
     FM290200 23005KT P6SM SCT150=

USA.gov is the U.S. government's official web portal to all federal, state and local government web resources and services.